sensor_id;sensor_type;location;lat;lon;timestamp;pressure;altitude;pressure_sealevel;temperature;humidity
39197;BME280;42889;51.112;13.772;2022-11-20T00:01:26;98789.94;;;-6.14;100.00
39197;BME280;42889;51.112;13.772;2022-11-20T00:03:55;98787.53;;;-5.98;100.00
39197;BME280;42889;51.112;13.772;2022-11-20T00:06:22;98792.78;;;-5.98;100.00
39197;BME280;42889;51.112;13.772;2022-11-20T00:08:49;98794.03;;;-5.88;100.00
39197;BME280;42889;51.112;13.772;2022-11-20T00:11:18;98786.97;;;-5.86;100.00
39197;BME280;42889;51.112;13.772;2022-11-20T00:13:47;98783.91;;;-5.75;100.00
39197;BME280;42889;51.112;13.772;2022-11-20T00:16:17;98775.16;;;-5.95;100.00
39197;BME280;42889;51.112;13.772;2022-11-20T00:18:43;98782.66;;;-5.87;100.00
39197;BME280;42889;51.112;13.772;2022-11-20T00:21:13;98768.66;;;-5.86;100.00
39197;BME280;42889;51.112;13.772;2022-11-20T00:23:41;98776.63;;;-5.89;100.00
39197;BME280;42889;51.112;13.772;2022-11-20T00:26:10;98783.94;;;-5.96;100.00
39197;BME280;42889;51.112;13.772;2022-11-20T00:28:37;98789.09;;;-5.94;100.00
39197;BME280;42889;51.112;13.772;2022-11-20T00:31:14;98790.81;;;-5.93;100.00
39197;BME280;42889;51.112;13.772;2022-11-20T00:33:41;98788.56;;;-5.82;100.00
39197;BME280;42889;51.112;13.772;2022-11-20T00:36:11;98792.88;;;-5.81;100.00
39197;BME280;42889;51.112;13.772;2022-11-20T00:38:38;98793.38;;;-5.92;100.00
39197;BME280;42889;51.112;13.772;2022-11-20T00:41:07;98786.63;;;-5.97;100.00
39197;BME280;42889;51.112;13.772;2022-11-20T00:43:35;98801.19;;;-6.12;100.00
39197;BME280;42889;51.112;13.772;2022-11-20T00:46:05;98797.06;;;-6.18;100.00
39197;BME280;42889;51.112;13.772;2022-11-20T00:48:32;98802.38;;;-6.19;100.00
39197;BME280;42889;51.112;13.772;2022-11-20T00:50:59;98803.56;;;-6.06;100.00
39197;BME280;42889;51.112;13.772;2022-11-20T00:53:26;98807.03;;;-6.05;100.00
39197;BME280;42889;51.112;13.772;2022-11-20T00:58:25;98809.06;;;-6.12;100.00
39197;BME280;42889;51.112;13.772;2022-11-20T01:00:51;98809.22;;;-6.15;100.00
39197;BME280;42889;51.112;13.772;2022-11-20T01:03:18;98811.75;;;-6.14;100.00
39197;BME280;42889;51.112;13.772;2022-11-20T01:05:52;98810.50;;;-6.25;100.00
39197;BME280;42889;51.112;13.772;2022-11-20T01:08:19;98806.41;;;-6.32;100.00
39197;BME280;42889;51.112;13.772;2022-11-20T01:10:45;98800.72;;;-6.22;100.00
39197;BME280;42889;51.112;13.772;2022-11-20T01:13:12;98814.91;;;-6.27;100.00
39197;BME280;42889;51.112;13.772;2022-11-20T01:18:31;98805.13;;;-6.22;100.00
39197;BME280;42889;51.112;13.772;2022-11-20T01:21:07;98799.75;;;-6.19;100.00
39197;BME280;42889;51.112;13.772;2022-11-20T01:23:35;98801.91;;;-6.29;100.00
39197;BME280;42889;51.112;13.772;2022-11-20T01:26:04;98800.47;;;-6.16;100.00
39197;BME280;42889;51.112;13.772;2022-11-20T01:28:31;98793.72;;;-6.21;100.00
39197;BME280;42889;51.112;13.772;2022-11-20T01:30:58;98793.06;;;-6.26;100.00
39197;BME280;42889;51.112;13.772;2022-11-20T01:33:25;98793.44;;;-6.35;100.00
39197;BME280;42889;51.112;13.772;2022-11-20T01:35:52;98794.41;;;-6.38;100.00
39197;BME280;42889;51.112;13.772;2022-11-20T01:38:19;98797.88;;;-6.38;100.00
39197;BME280;42889;51.112;13.772;2022-11-20T01:40:55;98793.94;;;-6.48;100.00
39197;BME280;42889;51.112;13.772;2022-11-20T01:43:23;98788.56;;;-6.45;100.00
39197;BME280;42889;51.112;13.772;2022-11-20T01:48:46;98791.19;;;-6.45;100.00
39197;BME280;42889;51.112;13.772;2022-11-20T01:51:28;98778.84;;;-6.41;100.00
39197;BME280;42889;51.112;13.772;2022-11-20T01:54:01;98777.66;;;-6.34;100.00
39197;BME280;42889;51.112;13.772;2022-11-20T01:56:34;98779.75;;;-6.42;100.00
39197;BME280;42889;51.112;13.772;2022-11-20T01:59:08;98773.66;;;-6.21;100.00
39197;BME280;42889;51.112;13.772;2022-11-20T02:01:41;98777.13;;;-6.20;100.00
39197;BME280;42889;51.112;13.772;2022-11-20T02:04:10;98771.63;;;-6.14;100.00
39197;BME280;42889;51.112;13.772;2022-11-20T02:06:50;98769.91;;;-6.15;100.00
39197;BME280;42889;51.112;13.772;2022-11-20T02:09:21;98768.34;;;-6.19;100.00
39197;BME280;42889;51.112;13.772;2022-11-20T02:11:51;98767.00;;;-6.29;100.00
39197;BME280;42889;51.112;13.772;2022-11-20T02:14:21;98772.75;;;-6.21;100.00
39197;BME280;42889;51.112;13.772;2022-11-20T02:16:49;98767.41;;;-6.18;100.00
39197;BME280;42889;51.112;13.772;2022-11-20T02:19:26;98768.78;;;-6.30;100.00
39197;BME280;42889;51.112;13.772;2022-11-20T02:24:31;98761.84;;;-6.11;100.00
39197;BME280;42889;51.112;13.772;2022-11-20T02:27:06;98764.25;;;-6.26;100.00
39197;BME280;42889;51.112;13.772;2022-11-20T02:32:22;98771.31;;;-6.28;100.00
39197;BME280;42889;51.112;13.772;2022-11-20T02:34:50;98767.97;;;-6.32;100.00
39197;BME280;42889;51.112;13.772;2022-11-20T02:37:20;98763.84;;;-6.38;100.00
39197;BME280;42889;51.112;13.772;2022-11-20T02:39:49;98759.78;;;-6.45;100.00
39197;BME280;42889;51.112;13.772;2022-11-20T02:42:18;98760.34;;;-6.58;100.00
39197;BME280;42889;51.112;13.772;2022-11-20T02:44:46;98767.78;;;-6.70;100.00
39197;BME280;42889;51.112;13.772;2022-11-20T02:47:16;98759.88;;;-6.68;100.00
39197;BME280;42889;51.112;13.772;2022-11-20T02:49:45;98763.69;;;-6.55;100.00
39197;BME280;42889;51.112;13.772;2022-11-20T02:52:16;98761.72;;;-6.50;100.00
39197;BME280;42889;51.112;13.772;2022-11-20T02:54:45;98759.72;;;-6.65;100.00
39197;BME280;42889;51.112;13.772;2022-11-20T02:57:15;98761.25;;;-6.81;100.00
39197;BME280;42889;51.112;13.772;2022-11-20T02:59:44;98758.88;;;-6.87;100.00
39197;BME280;42889;51.112;13.772;2022-11-20T03:02:15;98755.03;;;-7.01;100.00
39197;BME280;42889;51.112;13.772;2022-11-20T03:04:46;98758.16;;;-6.91;100.00
39197;BME280;42889;51.112;13.772;2022-11-20T03:07:18;98754.38;;;-7.06;100.00
39197;BME280;42889;51.112;13.772;2022-11-20T03:09:48;98751.50;;;-7.00;100.00
39197;BME280;42889;51.112;13.772;2022-11-20T03:12:23;98752.00;;;-6.90;100.00
39197;BME280;42889;51.112;13.772;2022-11-20T03:14:55;98751.94;;;-6.88;100.00
39197;BME280;42889;51.112;13.772;2022-11-20T03:17:28;98748.91;;;-7.00;100.00
39197;BME280;42889;51.112;13.772;2022-11-20T03:19:59;98741.31;;;-7.29;100.00
39197;BME280;42889;51.112;13.772;2022-11-20T03:22:30;98741.91;;;-7.45;100.00
39197;BME280;42889;51.112;13.772;2022-11-20T03:25:00;98738.81;;;-7.56;100.00
39197;BME280;42889;51.112;13.772;2022-11-20T03:27:33;98737.84;;;-7.53;100.00
39197;BME280;42889;51.112;13.772;2022-11-20T03:30:02;98732.81;;;-7.58;100.00
39197;BME280;42889;51.112;13.772;2022-11-20T03:32:30;98734.84;;;-7.66;100.00
39197;BME280;42889;51.112;13.772;2022-11-20T03:34:58;98733.75;;;-7.60;100.00
39197;BME280;42889;51.112;13.772;2022-11-20T03:37:27;98736.22;;;-7.79;100.00
39197;BME280;42889;51.112;13.772;2022-11-20T03:39:56;98735.44;;;-7.83;100.00
39197;BME280;42889;51.112;13.772;2022-11-20T03:42:29;98736.09;;;-7.53;100.00
39197;BME280;42889;51.112;13.772;2022-11-20T03:45:16;98739.00;;;-7.60;100.00
39197;BME280;42889;51.112;13.772;2022-11-20T03:47:45;98739.91;;;-7.61;100.00
39197;BME280;42889;51.112;13.772;2022-11-20T03:50:13;98739.91;;;-7.61;100.00
39197;BME280;42889;51.112;13.772;2022-11-20T03:52:42;98741.22;;;-7.50;100.00
39197;BME280;42889;51.112;13.772;2022-11-20T03:55:09;98744.50;;;-7.45;100.00
39197;BME280;42889;51.112;13.772;2022-11-20T03:57:36;98738.66;;;-7.51;100.00
39197;BME280;42889;51.112;13.772;2022-11-20T04:00:05;98745.25;;;-7.41;100.00
39197;BME280;42889;51.112;13.772;2022-11-20T04:02:33;98743.53;;;-7.42;100.00
39197;BME280;42889;51.112;13.772;2022-11-20T04:05:00;98732.22;;;-7.43;100.00
39197;BME280;42889;51.112;13.772;2022-11-20T04:07:28;98730.03;;;-7.30;100.00
39197;BME280;42889;51.112;13.772;2022-11-20T04:09:55;98727.81;;;-7.40;100.00
39197;BME280;42889;51.112;13.772;2022-11-20T04:12:22;98727.88;;;-7.20;100.00
39197;BME280;42889;51.112;13.772;2022-11-20T04:14:50;98724.34;;;-6.96;100.00
39197;BME280;42889;51.112;13.772;2022-11-20T04:17:17;98722.81;;;-7.01;100.00
39197;BME280;42889;51.112;13.772;2022-11-20T04:19:44;98725.53;;;-7.04;100.00
39197;BME280;42889;51.112;13.772;2022-11-20T04:22:11;98724.81;;;-7.08;100.00
39197;BME280;42889;51.112;13.772;2022-11-20T04:24:39;98718.25;;;-7.18;100.00
39197;BME280;42889;51.112;13.772;2022-11-20T04:27:07;98711.25;;;-7.18;100.00
39197;BME280;42889;51.112;13.772;2022-11-20T04:29:35;98710.25;;;-7.15;100.00
39197;BME280;42889;51.112;13.772;2022-11-20T04:32:04;98713.84;;;-7.18;100.00
39197;BME280;42889;51.112;13.772;2022-11-20T04:34:32;98707.78;;;-7.18;100.00
39197;BME280;42889;51.112;13.772;2022-11-20T04:37:01;98703.03;;;-7.30;100.00
39197;BME280;42889;51.112;13.772;2022-11-20T04:39:32;98703.19;;;-7.35;100.00
39197;BME280;42889;51.112;13.772;2022-11-20T04:42:03;98697.13;;;-7.35;100.00
39197;BME280;42889;51.112;13.772;2022-11-20T04:44:49;98689.66;;;-7.23;100.00
39197;BME280;42889;51.112;13.772;2022-11-20T04:47:19;98694.50;;;-7.35;100.00
39197;BME280;42889;51.112;13.772;2022-11-20T04:49:51;98694.63;;;-7.38;100.00
39197;BME280;42889;51.112;13.772;2022-11-20T04:52:23;98696.56;;;-7.44;100.00
39197;BME280;42889;51.112;13.772;2022-11-20T04:54:51;98697.59;;;-7.71;100.00
39197;BME280;42889;51.112;13.772;2022-11-20T04:57:20;98700.44;;;-7.77;100.00
39197;BME280;42889;51.112;13.772;2022-11-20T04:59:48;98708.56;;;-7.85;100.00
39197;BME280;42889;51.112;13.772;2022-11-20T05:02:18;98709.63;;;-7.90;100.00
39197;BME280;42889;51.112;13.772;2022-11-20T05:04:48;98712.50;;;-7.75;100.00
39197;BME280;42889;51.112;13.772;2022-11-20T05:07:16;98712.16;;;-7.89;100.00
39197;BME280;42889;51.112;13.772;2022-11-20T05:09:43;98707.69;;;-7.85;100.00
39197;BME280;42889;51.112;13.772;2022-11-20T05:12:13;98717.53;;;-7.68;100.00
39197;BME280;42889;51.112;13.772;2022-11-20T05:14:41;98713.19;;;-7.70;100.00
39197;BME280;42889;51.112;13.772;2022-11-20T05:17:10;98721.63;;;-7.61;100.00
39197;BME280;42889;51.112;13.772;2022-11-20T05:19:37;98717.72;;;-7.75;100.00
39197;BME280;42889;51.112;13.772;2022-11-20T05:22:04;98709.88;;;-7.75;100.00
39197;BME280;42889;51.112;13.772;2022-11-20T05:24:31;98714.28;;;-7.75;100.00
39197;BME280;42889;51.112;13.772;2022-11-20T05:27:00;98708.34;;;-7.80;100.00
39197;BME280;42889;51.112;13.772;2022-11-20T05:29:27;98712.41;;;-7.72;100.00
39197;BME280;42889;51.112;13.772;2022-11-20T05:31:54;98708.41;;;-7.58;100.00
39197;BME280;42889;51.112;13.772;2022-11-20T05:34:21;98711.63;;;-7.74;100.00
39197;BME280;42889;51.112;13.772;2022-11-20T05:36:49;98720.09;;;-7.67;100.00
39197;BME280;42889;51.112;13.772;2022-11-20T05:39:16;98708.78;;;-7.91;100.00
39197;BME280;42889;51.112;13.772;2022-11-20T05:41:43;98700.72;;;-8.10;100.00
39197;BME280;42889;51.112;13.772;2022-11-20T05:44:10;98699.59;;;-8.03;100.00
39197;BME280;42889;51.112;13.772;2022-11-20T05:46:37;98696.56;;;-7.90;100.00
39197;BME280;42889;51.112;13.772;2022-11-20T05:49:04;98700.88;;;-7.89;100.00
39197;BME280;42889;51.112;13.772;2022-11-20T05:51:31;98700.84;;;-8.13;100.00
39197;BME280;42889;51.112;13.772;2022-11-20T05:53:58;98710.31;;;-8.35;100.00
39197;BME280;42889;51.112;13.772;2022-11-20T05:56:25;98695.19;;;-8.26;100.00
39197;BME280;42889;51.112;13.772;2022-11-20T05:58:53;98699.78;;;-8.32;100.00
39197;BME280;42889;51.112;13.772;2022-11-20T06:01:22;98694.97;;;-8.19;100.00
39197;BME280;42889;51.112;13.772;2022-11-20T06:03:52;98696.47;;;-8.12;100.00
39197;BME280;42889;51.112;13.772;2022-11-20T06:06:20;98693.91;;;-8.14;100.00
39197;BME280;42889;51.112;13.772;2022-11-20T06:08:48;98694.06;;;-7.93;100.00
39197;BME280;42889;51.112;13.772;2022-11-20T06:11:17;98693.66;;;-7.83;100.00
39197;BME280;42889;51.112;13.772;2022-11-20T06:13:45;98696.19;;;-7.80;100.00
39197;BME280;42889;51.112;13.772;2022-11-20T06:16:14;98692.28;;;-7.70;100.00
39197;BME280;42889;51.112;13.772;2022-11-20T06:18:41;98694.13;;;-7.72;100.00
39197;BME280;42889;51.112;13.772;2022-11-20T06:21:13;98681.97;;;-7.49;100.00
39197;BME280;42889;51.112;13.772;2022-11-20T06:23:41;98679.53;;;-7.32;100.00
39197;BME280;42889;51.112;13.772;2022-11-20T06:26:17;98680.78;;;-7.40;100.00
39197;BME280;42889;51.112;13.772;2022-11-20T06:28:46;98679.41;;;-7.51;100.00
39197;BME280;42889;51.112;13.772;2022-11-20T06:31:15;98669.53;;;-7.66;100.00
39197;BME280;42889;51.112;13.772;2022-11-20T06:33:44;98674.31;;;-7.77;100.00
39197;BME280;42889;51.112;13.772;2022-11-20T06:36:14;98681.16;;;-7.98;100.00
39197;BME280;42889;51.112;13.772;2022-11-20T06:38:41;98683.47;;;-8.14;100.00
39197;BME280;42889;51.112;13.772;2022-11-20T06:41:15;98679.84;;;-8.10;100.00
39197;BME280;42889;51.112;13.772;2022-11-20T06:43:42;98682.13;;;-7.77;100.00
39197;BME280;42889;51.112;13.772;2022-11-20T06:46:12;98679.59;;;-7.79;100.00
39197;BME280;42889;51.112;13.772;2022-11-20T06:48:40;98681.38;;;-7.81;100.00
39197;BME280;42889;51.112;13.772;2022-11-20T06:51:08;98682.38;;;-7.83;100.00
39197;BME280;42889;51.112;13.772;2022-11-20T06:53:35;98676.84;;;-7.76;100.00
39197;BME280;42889;51.112;13.772;2022-11-20T06:56:03;98675.38;;;-7.83;100.00
39197;BME280;42889;51.112;13.772;2022-11-20T06:58:31;98679.28;;;-7.71;100.00
39197;BME280;42889;51.112;13.772;2022-11-20T07:01:09;98662.44;;;-7.62;100.00
39197;BME280;42889;51.112;13.772;2022-11-20T07:03:37;98671.38;;;-7.68;100.00
39197;BME280;42889;51.112;13.772;2022-11-20T07:06:06;98665.50;;;-7.51;100.00
39197;BME280;42889;51.112;13.772;2022-11-20T07:08:38;98663.72;;;-7.51;100.00
39197;BME280;42889;51.112;13.772;2022-11-20T07:11:07;98664.22;;;-7.63;100.00
39197;BME280;42889;51.112;13.772;2022-11-20T07:13:37;98665.75;;;-7.59;100.00
39197;BME280;42889;51.112;13.772;2022-11-20T07:16:08;98662.41;;;-7.39;100.00
39197;BME280;42889;51.112;13.772;2022-11-20T07:18:35;98662.41;;;-7.39;100.00
39197;BME280;42889;51.112;13.772;2022-11-20T07:21:04;98669.25;;;-7.36;100.00
39197;BME280;42889;51.112;13.772;2022-11-20T07:23:32;98663.84;;;-7.32;100.00
39197;BME280;42889;51.112;13.772;2022-11-20T07:26:05;98661.84;;;-7.25;100.00
39197;BME280;42889;51.112;13.772;2022-11-20T07:28:34;98661.44;;;-7.14;100.00
39197;BME280;42889;51.112;13.772;2022-11-20T07:31:02;98667.63;;;-6.95;100.00
39197;BME280;42889;51.112;13.772;2022-11-20T07:33:32;98658.22;;;-6.99;100.00
39197;BME280;42889;51.112;13.772;2022-11-20T07:36:03;98663.38;;;-6.98;100.00
39197;BME280;42889;51.112;13.772;2022-11-20T07:38:31;98669.13;;;-6.68;100.00
39197;BME280;42889;51.112;13.772;2022-11-20T07:40:58;98661.94;;;-6.63;100.00
39197;BME280;42889;51.112;13.772;2022-11-20T07:43:31;98664.63;;;-6.64;100.00
39197;BME280;42889;51.112;13.772;2022-11-20T07:46:06;98656.13;;;-6.69;100.00
39197;BME280;42889;51.112;13.772;2022-11-20T07:48:33;98668.09;;;-6.64;100.00
39197;BME280;42889;51.112;13.772;2022-11-20T07:51:00;98669.19;;;-6.49;100.00
39197;BME280;42889;51.112;13.772;2022-11-20T07:53:26;98666.00;;;-6.35;100.00
39197;BME280;42889;51.112;13.772;2022-11-20T07:55:53;98664.88;;;-6.50;100.00
39197;BME280;42889;51.112;13.772;2022-11-20T07:58:20;98664.31;;;-6.36;100.00
39197;BME280;42889;51.112;13.772;2022-11-20T08:00:47;98656.28;;;-6.31;100.00
39197;BME280;42889;51.112;13.772;2022-11-20T08:03:14;98652.78;;;-6.32;100.00
39197;BME280;42889;51.112;13.772;2022-11-20T08:05:49;98649.53;;;-6.37;100.00
39197;BME280;42889;51.112;13.772;2022-11-20T08:08:16;98645.25;;;-6.19;100.00
39197;BME280;42889;51.112;13.772;2022-11-20T08:10:42;98650.41;;;-6.18;100.00
39197;BME280;42889;51.112;13.772;2022-11-20T08:13:09;98655.69;;;-5.99;100.00
39197;BME280;42889;51.112;13.772;2022-11-20T08:15:54;98661.22;;;-5.86;100.00
39197;BME280;42889;51.112;13.772;2022-11-20T08:18:21;98656.81;;;-5.86;100.00
39197;BME280;42889;51.112;13.772;2022-11-20T08:21:01;98651.75;;;-5.70;100.00
39197;BME280;42889;51.112;13.772;2022-11-20T08:23:28;98649.19;;;-5.71;100.00
39197;BME280;42889;51.112;13.772;2022-11-20T08:25:54;98641.63;;;-5.59;100.00
39197;BME280;42889;51.112;13.772;2022-11-20T08:28:21;98648.75;;;-5.62;100.00
39197;BME280;42889;51.112;13.772;2022-11-20T08:30:49;98644.03;;;-5.54;100.00
39197;BME280;42889;51.112;13.772;2022-11-20T08:33:17;98643.53;;;-5.43;100.00
39197;BME280;42889;51.112;13.772;2022-11-20T08:35:45;98647.19;;;-5.28;100.00
39197;BME280;42889;51.112;13.772;2022-11-20T08:38:12;98646.16;;;-5.07;100.00
39197;BME280;42889;51.112;13.772;2022-11-20T08:40:39;98648.38;;;-4.81;100.00
39197;BME280;42889;51.112;13.772;2022-11-20T08:43:06;98639.91;;;-4.68;100.00
39197;BME280;42889;51.112;13.772;2022-11-20T08:45:32;98643.44;;;-4.69;99.08
39197;BME280;42889;51.112;13.772;2022-11-20T08:48:02;98639.75;;;-4.48;99.28
39197;BME280;42889;51.112;13.772;2022-11-20T08:50:30;98639.91;;;-4.51;98.10
39197;BME280;42889;51.112;13.772;2022-11-20T08:53:04;98638.38;;;-4.38;97.46
39197;BME280;42889;51.112;13.772;2022-11-20T08:55:31;98639.97;;;-4.35;97.17
39197;BME280;42889;51.112;13.772;2022-11-20T08:58:03;98628.06;;;-4.25;96.90
39197;BME280;42889;51.112;13.772;2022-11-20T09:00:31;98642.53;;;-4.16;96.81
39197;BME280;42889;51.112;13.772;2022-11-20T09:02:59;98628.41;;;-3.98;97.35
39197;BME280;42889;51.112;13.772;2022-11-20T09:05:30;98622.69;;;-3.57;96.22
39197;BME280;42889;51.112;13.772;2022-11-20T09:07:58;98615.50;;;-3.06;94.34
39197;BME280;42889;51.112;13.772;2022-11-20T09:10:26;98606.16;;;-2.96;91.48
39197;BME280;42889;51.112;13.772;2022-11-20T09:12:54;98606.56;;;-2.88;90.94
39197;BME280;42889;51.112;13.772;2022-11-20T09:15:24;98600.16;;;-2.68;88.97
39197;BME280;42889;51.112;13.772;2022-11-20T09:17:53;98594.81;;;-2.52;87.11
39197;BME280;42889;51.112;13.772;2022-11-20T09:20:20;98598.28;;;-2.82;85.88
39197;BME280;42889;51.112;13.772;2022-11-20T09:22:48;98600.38;;;-2.57;88.37
39197;BME280;42889;51.112;13.772;2022-11-20T09:25:15;98603.31;;;-2.47;87.84
39197;BME280;42889;51.112;13.772;2022-11-20T09:27:42;98603.31;;;-2.47;86.12
39197;BME280;42889;51.112;13.772;2022-11-20T09:30:11;98599.25;;;-2.83;85.27
39197;BME280;42889;51.112;13.772;2022-11-20T09:32:39;98604.34;;;-2.80;86.85
39197;BME280;42889;51.112;13.772;2022-11-20T09:35:06;98605.25;;;-2.81;88.04
39197;BME280;42889;51.112;13.772;2022-11-20T09:37:33;98610.22;;;-2.60;84.09
39197;BME280;42889;51.112;13.772;2022-11-20T09:40:00;98618.16;;;-2.46;84.61
39197;BME280;42889;51.112;13.772;2022-11-20T09:42:37;98605.06;;;-2.48;81.88
39197;BME280;42889;51.112;13.772;2022-11-20T09:48:20;98587.81;;;-1.25;76.85
39197;BME280;42889;51.112;13.772;2022-11-20T09:50:58;98589.53;;;-0.57;75.19
39197;BME280;42889;51.112;13.772;2022-11-20T09:56:10;98572.94;;;0.30;68.33
39197;BME280;42889;51.112;13.772;2022-11-20T09:58:42;98581.09;;;0.40;69.29
39197;BME280;42889;51.112;13.772;2022-11-20T10:01:20;98571.75;;;0.84;67.07
39197;BME280;42889;51.112;13.772;2022-11-20T10:04:09;98577.50;;;1.01;66.68
39197;BME280;42889;51.112;13.772;2022-11-20T10:07:02;98562.59;;;0.64;64.71
39197;BME280;42889;51.112;13.772;2022-11-20T10:09:55;98570.53;;;-0.11;68.30
39197;BME280;42889;51.112;13.772;2022-11-20T10:20:46;98573.91;;;-0.35;73.52
39197;BME280;42889;51.112;13.772;2022-11-20T10:29:11;98559.09;;;-0.50;70.40
39197;BME280;42889;51.112;13.772;2022-11-20T10:31:45;98554.56;;;-0.22;71.40
39197;BME280;42889;51.112;13.772;2022-11-20T10:37:37;98548.56;;;0.98;65.31
39197;BME280;42889;51.112;13.772;2022-11-20T10:42:58;98547.69;;;2.15;62.28
39197;BME280;42889;51.112;13.772;2022-11-20T10:45:50;98544.16;;;2.14;61.79
39197;BME280;42889;51.112;13.772;2022-11-20T10:48:45;98544.53;;;2.09;61.21
39197;BME280;42889;51.112;13.772;2022-11-20T10:52:02;98548.53;;;1.57;62.89
39197;BME280;42889;51.112;13.772;2022-11-20T10:54:43;98544.56;;;1.17;62.51
39197;BME280;42889;51.112;13.772;2022-11-20T10:57:54;98549.19;;;1.02;64.37
39197;BME280;42889;51.112;13.772;2022-11-20T11:00:26;98547.03;;;0.59;67.55
39197;BME280;42889;51.112;13.772;2022-11-20T11:02:54;98549.28;;;0.52;68.52
39197;BME280;42889;51.112;13.772;2022-11-20T11:08:24;98541.78;;;1.53;66.79
39197;BME280;42889;51.112;13.772;2022-11-20T11:10:57;98536.16;;;1.69;64.67
39197;BME280;42889;51.112;13.772;2022-11-20T11:13:29;98537.41;;;2.32;61.57
39197;BME280;42889;51.112;13.772;2022-11-20T11:15:57;98525.69;;;2.24;64.03
39197;BME280;42889;51.112;13.772;2022-11-20T11:18:31;98521.56;;;1.64;61.80
39197;BME280;42889;51.112;13.772;2022-11-20T11:21:03;98529.09;;;0.99;65.42
39197;BME280;42889;51.112;13.772;2022-11-20T11:23:39;98524.72;;;0.98;65.09
39197;BME280;42889;51.112;13.772;2022-11-20T11:26:26;98514.88;;;0.52;66.73
39197;BME280;42889;51.112;13.772;2022-11-20T11:28:59;98518.03;;;0.58;69.52
39197;BME280;42889;51.112;13.772;2022-11-20T11:31:29;98515.66;;;0.66;68.39
39197;BME280;42889;51.112;13.772;2022-11-20T11:34:16;98512.44;;;0.97;71.14
39197;BME280;42889;51.112;13.772;2022-11-20T11:36:54;98507.47;;;0.93;69.99
39197;BME280;42889;51.112;13.772;2022-11-20T11:39:23;98508.97;;;0.73;70.17
39197;BME280;42889;51.112;13.772;2022-11-20T11:41:51;98510.41;;;0.53;71.79
39197;BME280;42889;51.112;13.772;2022-11-20T11:44:20;98497.94;;;0.42;72.73
39197;BME280;42889;51.112;13.772;2022-11-20T11:47:15;98496.72;;;0.35;73.99
39197;BME280;42889;51.112;13.772;2022-11-20T11:49:48;98492.38;;;0.34;75.47
39197;BME280;42889;51.112;13.772;2022-11-20T11:52:17;98479.16;;;0.21;75.47
39197;BME280;42889;51.112;13.772;2022-11-20T11:54:53;98487.34;;;0.18;76.39
39197;BME280;42889;51.112;13.772;2022-11-20T12:00:12;98474.66;;;0.11;77.71
39197;BME280;42889;51.112;13.772;2022-11-20T12:02:57;98479.13;;;-0.03;77.75
39197;BME280;42889;51.112;13.772;2022-11-20T12:05:32;98479.34;;;-0.06;77.79
39197;BME280;42889;51.112;13.772;2022-11-20T12:08:19;98470.16;;;0.00;76.49
39197;BME280;42889;51.112;13.772;2022-11-20T12:16:04;98463.28;;;0.21;75.94
39197;BME280;42889;51.112;13.772;2022-11-20T12:18:31;98469.53;;;0.33;76.46
39197;BME280;42889;51.112;13.772;2022-11-20T12:37:29;98467.16;;;0.05;78.95
39197;BME280;42889;51.112;13.772;2022-11-20T12:46:21;98460.38;;;0.37;79.42
39197;BME280;42889;51.112;13.772;2022-11-20T13:00:14;98469.28;;;0.36;78.11
39197;BME280;42889;51.112;13.772;2022-11-20T13:06:25;98479.53;;;0.04;80.41
39197;BME280;42889;51.112;13.772;2022-11-20T13:08:35;98467.81;;;-0.17;81.14
39197;BME280;42889;51.112;13.772;2022-11-20T13:19:12;98464.31;;;0.08;82.54
39197;BME280;42889;51.112;13.772;2022-11-20T13:21:45;98456.59;;;-0.08;82.60
39197;BME280;42889;51.112;13.772;2022-11-20T13:26:40;98455.53;;;0.07;83.06
39197;BME280;42889;51.112;13.772;2022-11-20T13:29:11;98446.28;;;0.13;82.20
39197;BME280;42889;51.112;13.772;2022-11-20T13:31:43;98445.13;;;0.17;83.21
39197;BME280;42889;51.112;13.772;2022-11-20T13:34:23;98439.94;;;0.15;83.45
39197;BME280;42889;51.112;13.772;2022-11-20T13:36:53;98443.66;;;0.13;83.03
39197;BME280;42889;51.112;13.772;2022-11-20T13:39:31;98448.63;;;0.05;83.52
39197;BME280;42889;51.112;13.772;2022-11-20T13:42:01;98440.22;;;-0.13;83.84
39197;BME280;42889;51.112;13.772;2022-11-20T13:44:38;98440.66;;;-0.19;84.27
39197;BME280;42889;51.112;13.772;2022-11-20T13:47:24;98443.41;;;-0.21;84.45
39197;BME280;42889;51.112;13.772;2022-11-20T13:49:54;98441.22;;;-0.27;84.03
39197;BME280;42889;51.112;13.772;2022-11-20T13:52:50;98447.25;;;-0.38;83.54
39197;BME280;42889;51.112;13.772;2022-11-20T13:55:59;98434.75;;;-0.61;83.36
39197;BME280;42889;51.112;13.772;2022-11-20T13:59:02;98438.16;;;-0.59;83.98
39197;BME280;42889;51.112;13.772;2022-11-20T14:02:13;98448.09;;;-0.63;84.26
39197;BME280;42889;51.112;13.772;2022-11-20T14:04:45;98442.59;;;-0.72;84.17
39197;BME280;42889;51.112;13.772;2022-11-20T14:07:50;98439.88;;;-0.71;84.56
39197;BME280;42889;51.112;13.772;2022-11-20T14:11:06;98447.91;;;-0.60;84.79
39197;BME280;42889;51.112;13.772;2022-11-20T14:14:16;98445.66;;;-0.78;84.65
39197;BME280;42889;51.112;13.772;2022-11-20T14:17:35;98449.25;;;-0.67;84.04
39197;BME280;42889;51.112;13.772;2022-11-20T14:21:28;98448.81;;;-0.61;84.60
39197;BME280;42889;51.112;13.772;2022-11-20T14:24:37;98444.50;;;-0.62;84.47
39197;BME280;42889;51.112;13.772;2022-11-20T14:27:42;98440.19;;;-0.75;84.44
39197;BME280;42889;51.112;13.772;2022-11-20T14:31:46;98440.47;;;-0.93;86.01
39197;BME280;42889;51.112;13.772;2022-11-20T14:39:01;98447.81;;;-1.11;87.32
39197;BME280;42889;51.112;13.772;2022-11-20T14:42:19;98447.91;;;-1.25;87.43
39197;BME280;42889;51.112;13.772;2022-11-20T14:46:33;98451.91;;;-1.32;87.79
39197;BME280;42889;51.112;13.772;2022-11-20T14:50:46;98444.47;;;-1.52;88.15
39197;BME280;42889;51.112;13.772;2022-11-20T14:54:47;98434.34;;;-1.73;90.06
39197;BME280;42889;51.112;13.772;2022-11-20T15:16:01;98425.91;;;-2.33;94.46
39197;BME280;42889;51.112;13.772;2022-11-20T15:20:28;98431.53;;;-2.11;94.32
39197;BME280;42889;51.112;13.772;2022-11-20T15:24:46;98416.09;;;-2.17;93.82